Midland, Missouri
Current Conditions -  °F | °C
As of 7:55 PM on Friday 19 Dec 2014 (Local Time) from KIRK Reporting Station
Haze Haze  
Wind Chill: 26°   Ceiling: 700
Heat Index: 32°   Visibility: 4mi
Dew Point: 30°   Wind: 7mph
Humidity: 92%   Direction: 120°ESE
Pressure: 30.23"   Gusts: NA
Location:  40.2969°N, 92.7524°W
Report Text: KIRK 200155Z AUTO 12006KT 4SM BR BKN007 OVC011 00/M01 A3023 RMK AO2 SLP249 T00001011
Loading
Personal Weather Stations






























Interactive Weather Map New forecast layout! Learn more

10-Day Weather Forecast

Advertisements
Track Severe Weather on mobile